sensor_id;sensor_type;location;lat;lon;timestamp;P1;durP1;ratioP1;P2;durP2;ratioP2
5077;SDS011;2557;51.390;7.494;2023-10-31T00:01:51;2.60;;;2.50;;
5077;SDS011;2557;51.390;7.494;2023-10-31T00:04:17;2.93;;;2.77;;
5077;SDS011;2557;51.390;7.494;2023-10-31T00:06:43;3.63;;;3.43;;
5077;SDS011;2557;51.390;7.494;2023-10-31T00:09:09;4.13;;;3.80;;
5077;SDS011;2557;51.390;7.494;2023-10-31T00:11:39;4.83;;;4.40;;
5077;SDS011;2557;51.390;7.494;2023-10-31T00:14:08;4.40;;;4.10;;
5077;SDS011;2557;51.390;7.494;2023-10-31T00:16:34;4.00;;;3.70;;
5077;SDS011;2557;51.390;7.494;2023-10-31T00:18:59;3.70;;;3.47;;
5077;SDS011;2557;51.390;7.494;2023-10-31T00:21:25;3.53;;;3.23;;
5077;SDS011;2557;51.390;7.494;2023-10-31T00:23:52;3.20;;;3.00;;
5077;SDS011;2557;51.390;7.494;2023-10-31T00:26:18;2.80;;;2.60;;
5077;SDS011;2557;51.390;7.494;2023-10-31T00:28:44;3.10;;;2.90;;
5077;SDS011;2557;51.390;7.494;2023-10-31T00:31:10;3.00;;;2.70;;
5077;SDS011;2557;51.390;7.494;2023-10-31T00:33:37;3.37;;;3.00;;
5077;SDS011;2557;51.390;7.494;2023-10-31T00:36:03;3.07;;;2.87;;
5077;SDS011;2557;51.390;7.494;2023-10-31T00:38:29;2.93;;;2.73;;
5077;SDS011;2557;51.390;7.494;2023-10-31T00:40:55;2.63;;;2.43;;
5077;SDS011;2557;51.390;7.494;2023-10-31T00:43:21;2.90;;;2.70;;
5077;SDS011;2557;51.390;7.494;2023-10-31T00:45:47;3.00;;;2.80;;
5077;SDS011;2557;51.390;7.494;2023-10-31T00:48:13;2.80;;;2.60;;
5077;SDS011;2557;51.390;7.494;2023-10-31T00:50:39;2.87;;;2.77;;
5077;SDS011;2557;51.390;7.494;2023-10-31T00:53:06;3.23;;;3.03;;
5077;SDS011;2557;51.390;7.494;2023-10-31T00:55:32;2.97;;;2.80;;
5077;SDS011;2557;51.390;7.494;2023-10-31T00:57:58;3.80;;;3.50;;
5077;SDS011;2557;51.390;7.494;2023-10-31T01:00:24;4.23;;;3.50;;
5077;SDS011;2557;51.390;7.494;2023-10-31T01:02:50;2.97;;;2.77;;
5077;SDS011;2557;51.390;7.494;2023-10-31T01:05:16;3.00;;;2.80;;
5077;SDS011;2557;51.390;7.494;2023-10-31T01:07:42;5.83;;;3.43;;
5077;SDS011;2557;51.390;7.494;2023-10-31T01:10:08;3.73;;;3.43;;
5077;SDS011;2557;51.390;7.494;2023-10-31T01:12:35;3.60;;;3.30;;
5077;SDS011;2557;51.390;7.494;2023-10-31T01:15:01;3.60;;;3.40;;
5077;SDS011;2557;51.390;7.494;2023-10-31T01:17:27;3.30;;;3.10;;
5077;SDS011;2557;51.390;7.494;2023-10-31T01:19:53;3.23;;;3.03;;
5077;SDS011;2557;51.390;7.494;2023-10-31T01:22:19;3.17;;;2.97;;
5077;SDS011;2557;51.390;7.494;2023-10-31T01:24:45;4.33;;;3.03;;
5077;SDS011;2557;51.390;7.494;2023-10-31T01:27:11;3.00;;;2.90;;
5077;SDS011;2557;51.390;7.494;2023-10-31T01:29:37;4.63;;;3.07;;
5077;SDS011;2557;51.390;7.494;2023-10-31T01:32:03;3.03;;;2.73;;
5077;SDS011;2557;51.390;7.494;2023-10-31T01:34:29;3.43;;;3.23;;
5077;SDS011;2557;51.390;7.494;2023-10-31T01:36:55;3.43;;;3.23;;
5077;SDS011;2557;51.390;7.494;2023-10-31T01:39:21;3.37;;;3.07;;
5077;SDS011;2557;51.390;7.494;2023-10-31T01:41:47;7.33;;;2.60;;
5077;SDS011;2557;51.390;7.494;2023-10-31T01:44:13;3.00;;;2.80;;
5077;SDS011;2557;51.390;7.494;2023-10-31T01:46:39;2.60;;;2.40;;
5077;SDS011;2557;51.390;7.494;2023-10-31T01:49:06;3.30;;;2.97;;
5077;SDS011;2557;51.390;7.494;2023-10-31T01:51:32;3.00;;;2.80;;
5077;SDS011;2557;51.390;7.494;2023-10-31T01:53:58;3.13;;;2.80;;
5077;SDS011;2557;51.390;7.494;2023-10-31T01:56:24;3.63;;;2.80;;
5077;SDS011;2557;51.390;7.494;2023-10-31T01:58:51;5.40;;;2.57;;
5077;SDS011;2557;51.390;7.494;2023-10-31T02:01:18;3.13;;;2.93;;
5077;SDS011;2557;51.390;7.494;2023-10-31T02:03:44;2.93;;;2.73;;
5077;SDS011;2557;51.390;7.494;2023-10-31T02:06:10;2.90;;;2.53;;
5077;SDS011;2557;51.390;7.494;2023-10-31T02:08:37;3.30;;;3.10;;
5077;SDS011;2557;51.390;7.494;2023-10-31T02:11:03;3.13;;;2.60;;
5077;SDS011;2557;51.390;7.494;2023-10-31T02:13:30;3.00;;;2.80;;
5077;SDS011;2557;51.390;7.494;2023-10-31T02:15:56;2.80;;;2.60;;
5077;SDS011;2557;51.390;7.494;2023-10-31T02:18:22;3.57;;;2.93;;
5077;SDS011;2557;51.390;7.494;2023-10-31T02:20:48;3.17;;;2.87;;
5077;SDS011;2557;51.390;7.494;2023-10-31T02:23:17;3.00;;;2.80;;
5077;SDS011;2557;51.390;7.494;2023-10-31T02:25:43;4.00;;;3.33;;
5077;SDS011;2557;51.390;7.494;2023-10-31T02:28:09;3.03;;;2.80;;
5077;SDS011;2557;51.390;7.494;2023-10-31T02:30:35;4.40;;;3.30;;
5077;SDS011;2557;51.390;7.494;2023-10-31T02:33:01;2.87;;;2.77;;
5077;SDS011;2557;51.390;7.494;2023-10-31T02:35:27;4.10;;;3.70;;
5077;SDS011;2557;51.390;7.494;2023-10-31T02:37:53;3.67;;;3.47;;
5077;SDS011;2557;51.390;7.494;2023-10-31T02:40:19;3.30;;;3.10;;
5077;SDS011;2557;51.390;7.494;2023-10-31T02:42:45;3.20;;;3.00;;
5077;SDS011;2557;51.390;7.494;2023-10-31T02:45:11;3.00;;;2.80;;
5077;SDS011;2557;51.390;7.494;2023-10-31T02:47:38;3.83;;;3.17;;
5077;SDS011;2557;51.390;7.494;2023-10-31T02:50:04;3.50;;;2.83;;
5077;SDS011;2557;51.390;7.494;2023-10-31T02:52:30;3.53;;;3.07;;
5077;SDS011;2557;51.390;7.494;2023-10-31T02:54:56;5.20;;;3.10;;
5077;SDS011;2557;51.390;7.494;2023-10-31T02:57:22;3.63;;;3.30;;
5077;SDS011;2557;51.390;7.494;2023-10-31T02:59:48;3.73;;;3.00;;
5077;SDS011;2557;51.390;7.494;2023-10-31T03:02:14;3.30;;;3.00;;
5077;SDS011;2557;51.390;7.494;2023-10-31T03:04:40;3.43;;;3.23;;
5077;SDS011;2557;51.390;7.494;2023-10-31T03:07:06;2.90;;;2.70;;
5077;SDS011;2557;51.390;7.494;2023-10-31T03:09:32;3.17;;;2.97;;
5077;SDS011;2557;51.390;7.494;2023-10-31T03:11:58;4.00;;;3.20;;
5077;SDS011;2557;51.390;7.494;2023-10-31T03:14:24;5.53;;;3.07;;
5077;SDS011;2557;51.390;7.494;2023-10-31T03:16:50;4.30;;;3.80;;
5077;SDS011;2557;51.390;7.494;2023-10-31T03:19:16;4.77;;;4.33;;
5077;SDS011;2557;51.390;7.494;2023-10-31T03:21:42;5.50;;;5.00;;
5077;SDS011;2557;51.390;7.494;2023-10-31T03:24:08;7.47;;;6.23;;
5077;SDS011;2557;51.390;7.494;2023-10-31T03:26:34;9.40;;;6.17;;
5077;SDS011;2557;51.390;7.494;2023-10-31T03:29:00;7.30;;;6.20;;
5077;SDS011;2557;51.390;7.494;2023-10-31T03:31:26;8.57;;;6.50;;
5077;SDS011;2557;51.390;7.494;2023-10-31T03:33:53;7.23;;;6.40;;
5077;SDS011;2557;51.390;7.494;2023-10-31T03:36:20;9.77;;;6.30;;
5077;SDS011;2557;51.390;7.494;2023-10-31T03:38:46;9.27;;;7.73;;
5077;SDS011;2557;51.390;7.494;2023-10-31T03:41:12;7.17;;;6.57;;
5077;SDS011;2557;51.390;7.494;2023-10-31T03:43:38;8.33;;;7.33;;
5077;SDS011;2557;51.390;7.494;2023-10-31T03:46:04;8.17;;;7.30;;
5077;SDS011;2557;51.390;7.494;2023-10-31T03:48:30;7.47;;;6.77;;
5077;SDS011;2557;51.390;7.494;2023-10-31T03:50:56;8.40;;;6.80;;
5077;SDS011;2557;51.390;7.494;2023-10-31T03:53:22;13.40;;;7.43;;
5077;SDS011;2557;51.390;7.494;2023-10-31T03:55:48;10.73;;;6.77;;
5077;SDS011;2557;51.390;7.494;2023-10-31T03:58:14;7.73;;;6.57;;
5077;SDS011;2557;51.390;7.494;2023-10-31T04:00:40;8.37;;;6.00;;
5077;SDS011;2557;51.390;7.494;2023-10-31T04:03:07;8.33;;;7.43;;
5077;SDS011;2557;51.390;7.494;2023-10-31T04:05:33;9.40;;;6.50;;
5077;SDS011;2557;51.390;7.494;2023-10-31T04:07:59;8.47;;;7.43;;
5077;SDS011;2557;51.390;7.494;2023-10-31T04:10:25;8.23;;;6.43;;
5077;SDS011;2557;51.390;7.494;2023-10-31T04:12:51;18.20;;;7.17;;
5077;SDS011;2557;51.390;7.494;2023-10-31T04:15:17;8.50;;;6.73;;
5077;SDS011;2557;51.390;7.494;2023-10-31T04:17:43;7.93;;;5.73;;
5077;SDS011;2557;51.390;7.494;2023-10-31T04:20:10;9.03;;;7.40;;
5077;SDS011;2557;51.390;7.494;2023-10-31T04:22:36;7.63;;;6.83;;
5077;SDS011;2557;51.390;7.494;2023-10-31T04:25:02;10.07;;;6.87;;
5077;SDS011;2557;51.390;7.494;2023-10-31T04:27:28;9.33;;;8.20;;
5077;SDS011;2557;51.390;7.494;2023-10-31T04:29:54;12.13;;;7.30;;
5077;SDS011;2557;51.390;7.494;2023-10-31T04:32:20;9.70;;;7.57;;
5077;SDS011;2557;51.390;7.494;2023-10-31T04:34:46;10.07;;;7.73;;
5077;SDS011;2557;51.390;7.494;2023-10-31T04:37:12;6.90;;;6.30;;
5077;SDS011;2557;51.390;7.494;2023-10-31T04:39:38;8.03;;;7.20;;
5077;SDS011;2557;51.390;7.494;2023-10-31T04:42:04;6.80;;;6.20;;
5077;SDS011;2557;51.390;7.494;2023-10-31T04:44:30;11.30;;;6.90;;
5077;SDS011;2557;51.390;7.494;2023-10-31T04:46:56;8.30;;;6.60;;
5077;SDS011;2557;51.390;7.494;2023-10-31T04:49:22;8.20;;;6.43;;
5077;SDS011;2557;51.390;7.494;2023-10-31T04:51:48;6.80;;;6.20;;
5077;SDS011;2557;51.390;7.494;2023-10-31T04:54:14;8.20;;;5.40;;
5077;SDS011;2557;51.390;7.494;2023-10-31T04:56:40;6.57;;;5.53;;
5077;SDS011;2557;51.390;7.494;2023-10-31T04:59:06;7.63;;;5.80;;
5077;SDS011;2557;51.390;7.494;2023-10-31T05:01:32;7.73;;;6.17;;
5077;SDS011;2557;51.390;7.494;2023-10-31T05:03:58;6.40;;;5.40;;
5077;SDS011;2557;51.390;7.494;2023-10-31T05:06:24;9.90;;;5.53;;
5077;SDS011;2557;51.390;7.494;2023-10-31T05:08:50;6.07;;;5.57;;
5077;SDS011;2557;51.390;7.494;2023-10-31T05:11:16;5.60;;;5.07;;
5077;SDS011;2557;51.390;7.494;2023-10-31T05:13:43;5.50;;;4.77;;
5077;SDS011;2557;51.390;7.494;2023-10-31T05:16:09;9.40;;;4.87;;
5077;SDS011;2557;51.390;7.494;2023-10-31T05:18:36;5.70;;;5.27;;
5077;SDS011;2557;51.390;7.494;2023-10-31T05:21:03;5.80;;;5.23;;
5077;SDS011;2557;51.390;7.494;2023-10-31T05:23:29;6.23;;;5.67;;
5077;SDS011;2557;51.390;7.494;2023-10-31T05:25:55;5.60;;;5.00;;
5077;SDS011;2557;51.390;7.494;2023-10-31T05:28:21;7.17;;;5.00;;
5077;SDS011;2557;51.390;7.494;2023-10-31T05:30:48;5.23;;;4.73;;
5077;SDS011;2557;51.390;7.494;2023-10-31T05:33:14;5.57;;;4.47;;
5077;SDS011;2557;51.390;7.494;2023-10-31T05:35:41;6.03;;;5.30;;
5077;SDS011;2557;51.390;7.494;2023-10-31T05:38:07;4.87;;;4.47;;
5077;SDS011;2557;51.390;7.494;2023-10-31T05:40:33;6.10;;;4.43;;
5077;SDS011;2557;51.390;7.494;2023-10-31T05:43:00;5.40;;;4.97;;
5077;SDS011;2557;51.390;7.494;2023-10-31T05:45:26;5.17;;;4.67;;
5077;SDS011;2557;51.390;7.494;2023-10-31T05:47:52;6.20;;;5.37;;
5077;SDS011;2557;51.390;7.494;2023-10-31T05:50:18;5.83;;;5.20;;
5077;SDS011;2557;51.390;7.494;2023-10-31T05:52:44;9.93;;;5.50;;
5077;SDS011;2557;51.390;7.494;2023-10-31T05:55:10;5.40;;;5.03;;
5077;SDS011;2557;51.390;7.494;2023-10-31T05:57:36;5.77;;;5.27;;
5077;SDS011;2557;51.390;7.494;2023-10-31T06:00:02;5.80;;;5.30;;
5077;SDS011;2557;51.390;7.494;2023-10-31T06:02:28;6.10;;;4.90;;
5077;SDS011;2557;51.390;7.494;2023-10-31T06:04:55;6.33;;;5.73;;
5077;SDS011;2557;51.390;7.494;2023-10-31T06:07:21;6.20;;;5.60;;
5077;SDS011;2557;51.390;7.494;2023-10-31T06:09:47;7.67;;;6.23;;
5077;SDS011;2557;51.390;7.494;2023-10-31T06:12:12;6.80;;;6.10;;
5077;SDS011;2557;51.390;7.494;2023-10-31T06:14:38;6.63;;;5.93;;
5077;SDS011;2557;51.390;7.494;2023-10-31T06:17:04;7.13;;;6.10;;
5077;SDS011;2557;51.390;7.494;2023-10-31T06:19:34;6.63;;;5.73;;
5077;SDS011;2557;51.390;7.494;2023-10-31T06:22:00;8.63;;;5.87;;
5077;SDS011;2557;51.390;7.494;2023-10-31T06:24:26;7.23;;;6.47;;
5077;SDS011;2557;51.390;7.494;2023-10-31T06:26:52;6.50;;;5.70;;
5077;SDS011;2557;51.390;7.494;2023-10-31T06:29:18;5.97;;;5.47;;
5077;SDS011;2557;51.390;7.494;2023-10-31T06:31:44;8.10;;;6.67;;
5077;SDS011;2557;51.390;7.494;2023-10-31T06:34:10;10.93;;;6.40;;
5077;SDS011;2557;51.390;7.494;2023-10-31T06:36:36;10.10;;;8.10;;
5077;SDS011;2557;51.390;7.494;2023-10-31T06:39:02;10.50;;;7.23;;
5077;SDS011;2557;51.390;7.494;2023-10-31T06:41:28;9.17;;;6.93;;
5077;SDS011;2557;51.390;7.494;2023-10-31T06:43:54;10.47;;;6.93;;
5077;SDS011;2557;51.390;7.494;2023-10-31T06:46:20;12.63;;;8.87;;
5077;SDS011;2557;51.390;7.494;2023-10-31T06:48:46;19.33;;;8.37;;
5077;SDS011;2557;51.390;7.494;2023-10-31T06:51:12;9.37;;;7.70;;
5077;SDS011;2557;51.390;7.494;2023-10-31T06:53:38;8.00;;;7.20;;
5077;SDS011;2557;51.390;7.494;2023-10-31T06:56:04;8.37;;;7.50;;
5077;SDS011;2557;51.390;7.494;2023-10-31T06:58:30;9.20;;;7.60;;
5077;SDS011;2557;51.390;7.494;2023-10-31T07:00:56;7.77;;;7.03;;
5077;SDS011;2557;51.390;7.494;2023-10-31T07:03:24;10.23;;;8.17;;
5077;SDS011;2557;51.390;7.494;2023-10-31T07:05:50;11.60;;;7.37;;
5077;SDS011;2557;51.390;7.494;2023-10-31T07:08:17;9.50;;;7.63;;
5077;SDS011;2557;51.390;7.494;2023-10-31T07:10:43;12.20;;;7.07;;
5077;SDS011;2557;51.390;7.494;2023-10-31T07:13:09;9.00;;;7.70;;
5077;SDS011;2557;51.390;7.494;2023-10-31T07:15:35;8.60;;;7.17;;
5077;SDS011;2557;51.390;7.494;2023-10-31T07:18:04;12.07;;;7.80;;
5077;SDS011;2557;51.390;7.494;2023-10-31T07:20:32;9.60;;;6.87;;
5077;SDS011;2557;51.390;7.494;2023-10-31T07:22:58;7.53;;;6.83;;
5077;SDS011;2557;51.390;7.494;2023-10-31T07:25:24;8.13;;;7.33;;
5077;SDS011;2557;51.390;7.494;2023-10-31T07:27:50;7.87;;;7.07;;
5077;SDS011;2557;51.390;7.494;2023-10-31T07:30:16;11.50;;;6.97;;
5077;SDS011;2557;51.390;7.494;2023-10-31T07:32:42;8.23;;;6.50;;
5077;SDS011;2557;51.390;7.494;2023-10-31T07:35:08;7.20;;;6.50;;
5077;SDS011;2557;51.390;7.494;2023-10-31T07:37:34;6.77;;;6.17;;
5077;SDS011;2557;51.390;7.494;2023-10-31T07:40:00;14.17;;;7.97;;
5077;SDS011;2557;51.390;7.494;2023-10-31T07:42:26;6.90;;;6.30;;
5077;SDS011;2557;51.390;7.494;2023-10-31T07:44:52;6.40;;;5.77;;
5077;SDS011;2557;51.390;7.494;2023-10-31T07:47:18;7.07;;;6.40;;
5077;SDS011;2557;51.390;7.494;2023-10-31T07:49:44;5.80;;;5.20;;
5077;SDS011;2557;51.390;7.494;2023-10-31T07:52:10;6.43;;;5.37;;
5077;SDS011;2557;51.390;7.494;2023-10-31T07:54:38;5.77;;;5.27;;
5077;SDS011;2557;51.390;7.494;2023-10-31T07:57:07;5.63;;;5.10;;
5077;SDS011;2557;51.390;7.494;2023-10-31T07:59:34;5.37;;;4.87;;
5077;SDS011;2557;51.390;7.494;2023-10-31T08:02:00;5.23;;;4.73;;
5077;SDS011;2557;51.390;7.494;2023-10-31T08:04:26;6.43;;;5.20;;
5077;SDS011;2557;51.390;7.494;2023-10-31T08:06:53;7.80;;;5.37;;
5077;SDS011;2557;51.390;7.494;2023-10-31T08:09:19;6.23;;;5.63;;
5077;SDS011;2557;51.390;7.494;2023-10-31T08:11:45;6.77;;;6.13;;
5077;SDS011;2557;51.390;7.494;2023-10-31T08:14:11;6.50;;;5.93;;
5077;SDS011;2557;51.390;7.494;2023-10-31T08:16:37;7.07;;;6.53;;
5077;SDS011;2557;51.390;7.494;2023-10-31T08:19:03;7.50;;;6.60;;
5077;SDS011;2557;51.390;7.494;2023-10-31T08:21:29;7.83;;;6.33;;
5077;SDS011;2557;51.390;7.494;2023-10-31T08:24:00;8.23;;;6.90;;
5077;SDS011;2557;51.390;7.494;2023-10-31T08:26:26;8.03;;;7.33;;
5077;SDS011;2557;51.390;7.494;2023-10-31T08:28:52;10.17;;;7.53;;
5077;SDS011;2557;51.390;7.494;2023-10-31T08:31:18;8.60;;;7.20;;
5077;SDS011;2557;51.390;7.494;2023-10-31T08:33:45;11.23;;;7.57;;
5077;SDS011;2557;51.390;7.494;2023-10-31T08:36:11;11.67;;;8.20;;
5077;SDS011;2557;51.390;7.494;2023-10-31T08:38:37;11.33;;;8.40;;
5077;SDS011;2557;51.390;7.494;2023-10-31T08:41:03;8.80;;;8.00;;
5077;SDS011;2557;51.390;7.494;2023-10-31T08:43:29;13.20;;;7.40;;
5077;SDS011;2557;51.390;7.494;2023-10-31T08:45:55;8.13;;;7.40;;
5077;SDS011;2557;51.390;7.494;2023-10-31T08:48:21;8.20;;;6.97;;
5077;SDS011;2557;51.390;7.494;2023-10-31T08:50:48;7.83;;;7.10;;
5077;SDS011;2557;51.390;7.494;2023-10-31T08:53:14;6.70;;;6.20;;
5077;SDS011;2557;51.390;7.494;2023-10-31T08:55:40;7.67;;;7.07;;
5077;SDS011;2557;51.390;7.494;2023-10-31T08:58:09;7.43;;;6.77;;
5077;SDS011;2557;51.390;7.494;2023-10-31T09:00:35;7.23;;;6.60;;
5077;SDS011;2557;51.390;7.494;2023-10-31T09:03:01;7.70;;;7.03;;
5077;SDS011;2557;51.390;7.494;2023-10-31T09:05:27;6.83;;;6.23;;
5077;SDS011;2557;51.390;7.494;2023-10-31T09:07:53;10.23;;;6.93;;
5077;SDS011;2557;51.390;7.494;2023-10-31T09:10:19;12.03;;;6.97;;
5077;SDS011;2557;51.390;7.494;2023-10-31T09:12:45;7.87;;;7.17;;
5077;SDS011;2557;51.390;7.494;2023-10-31T09:15:11;13.60;;;7.20;;
5077;SDS011;2557;51.390;7.494;2023-10-31T09:17:38;6.77;;;6.27;;
5077;SDS011;2557;51.390;7.494;2023-10-31T09:20:04;8.23;;;7.43;;
5077;SDS011;2557;51.390;7.494;2023-10-31T09:22:33;7.20;;;6.50;;
5077;SDS011;2557;51.390;7.494;2023-10-31T09:24:59;7.17;;;6.40;;
5077;SDS011;2557;51.390;7.494;2023-10-31T09:27:25;6.63;;;5.97;;
5077;SDS011;2557;51.390;7.494;2023-10-31T09:29:51;6.40;;;5.70;;
5077;SDS011;2557;51.390;7.494;2023-10-31T09:32:17;8.10;;;6.63;;
5077;SDS011;2557;51.390;7.494;2023-10-31T09:34:43;6.10;;;5.33;;
5077;SDS011;2557;51.390;7.494;2023-10-31T09:37:09;8.40;;;5.80;;
5077;SDS011;2557;51.390;7.494;2023-10-31T09:39:35;6.53;;;5.90;;
5077;SDS011;2557;51.390;7.494;2023-10-31T09:42:02;8.30;;;6.60;;
5077;SDS011;2557;51.390;7.494;2023-10-31T09:44:28;7.60;;;6.30;;
5077;SDS011;2557;51.390;7.494;2023-10-31T09:46:54;6.07;;;5.47;;
5077;SDS011;2557;51.390;7.494;2023-10-31T09:49:20;4.63;;;4.33;;
5077;SDS011;2557;51.390;7.494;2023-10-31T09:51:46;5.40;;;4.90;;
5077;SDS011;2557;51.390;7.494;2023-10-31T09:54:14;5.00;;;4.63;;
5077;SDS011;2557;51.390;7.494;2023-10-31T09:56:42;5.53;;;5.13;;
5077;SDS011;2557;51.390;7.494;2023-10-31T09:59:08;5.70;;;5.20;;
5077;SDS011;2557;51.390;7.494;2023-10-31T10:01:35;4.77;;;4.47;;
5077;SDS011;2557;51.390;7.494;2023-10-31T10:04:01;5.50;;;5.10;;
5077;SDS011;2557;51.390;7.494;2023-10-31T10:06:27;9.40;;;4.80;;
5077;SDS011;2557;51.390;7.494;2023-10-31T10:08:55;5.70;;;5.30;;
5077;SDS011;2557;51.390;7.494;2023-10-31T10:11:21;6.70;;;5.47;;
5077;SDS011;2557;51.390;7.494;2023-10-31T10:13:47;6.10;;;5.60;;
5077;SDS011;2557;51.390;7.494;2023-10-31T10:16:25;7.37;;;5.90;;
5077;SDS011;2557;51.390;7.494;2023-10-31T10:18:53;10.77;;;6.33;;
5077;SDS011;2557;51.390;7.494;2023-10-31T10:21:19;8.53;;;6.73;;
5077;SDS011;2557;51.390;7.494;2023-10-31T10:23:46;7.43;;;6.07;;
5077;SDS011;2557;51.390;7.494;2023-10-31T10:26:15;10.13;;;5.57;;
5077;SDS011;2557;51.390;7.494;2023-10-31T10:28:41;7.50;;;5.37;;
5077;SDS011;2557;51.390;7.494;2023-10-31T10:31:07;13.67;;;6.97;;
5077;SDS011;2557;51.390;7.494;2023-10-31T10:33:33;7.03;;;6.23;;
5077;SDS011;2557;51.390;7.494;2023-10-31T10:35:59;7.80;;;6.80;;
5077;SDS011;2557;51.390;7.494;2023-10-31T10:38:25;11.80;;;6.87;;
5077;SDS011;2557;51.390;7.494;2023-10-31T10:40:53;6.00;;;5.50;;
5077;SDS011;2557;51.390;7.494;2023-10-31T10:43:22;10.83;;;5.13;;
5077;SDS011;2557;51.390;7.494;2023-10-31T10:45:55;8.43;;;6.20;;
5077;SDS011;2557;51.390;7.494;2023-10-31T10:48:21;6.30;;;5.70;;
5077;SDS011;2557;51.390;7.494;2023-10-31T10:50:51;7.27;;;6.67;;
5077;SDS011;2557;51.390;7.494;2023-10-31T10:53:22;10.23;;;6.50;;
5077;SDS011;2557;51.390;7.494;2023-10-31T10:55:53;9.47;;;6.57;;
5077;SDS011;2557;51.390;7.494;2023-10-31T10:58:22;10.13;;;6.97;;
5077;SDS011;2557;51.390;7.494;2023-10-31T11:00:51;7.60;;;6.40;;
5077;SDS011;2557;51.390;7.494;2023-10-31T11:03:19;7.40;;;5.33;;
5077;SDS011;2557;51.390;7.494;2023-10-31T11:05:47;8.90;;;6.50;;
5077;SDS011;2557;51.390;7.494;2023-10-31T11:08:13;7.00;;;6.40;;
5077;SDS011;2557;51.390;7.494;2023-10-31T11:10:40;7.00;;;6.30;;
5077;SDS011;2557;51.390;7.494;2023-10-31T11:13:06;8.00;;;5.53;;
5077;SDS011;2557;51.390;7.494;2023-10-31T11:15:33;5.57;;;4.77;;
5077;SDS011;2557;51.390;7.494;2023-10-31T11:17:59;6.83;;;6.10;;
5077;SDS011;2557;51.390;7.494;2023-10-31T11:20:27;6.97;;;5.77;;
5077;SDS011;2557;51.390;7.494;2023-10-31T11:22:55;6.30;;;5.23;;
5077;SDS011;2557;51.390;7.494;2023-10-31T11:25:29;6.77;;;5.17;;
5077;SDS011;2557;51.390;7.494;2023-10-31T11:27:57;6.33;;;5.67;;
5077;SDS011;2557;51.390;7.494;2023-10-31T11:30:30;5.80;;;5.30;;
5077;SDS011;2557;51.390;7.494;2023-10-31T11:32:58;7.40;;;6.10;;
5077;SDS011;2557;51.390;7.494;2023-10-31T11:35:24;6.77;;;5.60;;
5077;SDS011;2557;51.390;7.494;2023-10-31T11:38:11;6.50;;;4.90;;
5077;SDS011;2557;51.390;7.494;2023-10-31T11:40:38;11.27;;;5.60;;
5077;SDS011;2557;51.390;7.494;2023-10-31T11:43:12;6.00;;;5.40;;
5077;SDS011;2557;51.390;7.494;2023-10-31T11:45:42;6.00;;;4.60;;
5077;SDS011;2557;51.390;7.494;2023-10-31T11:48:12;6.00;;;4.93;;
5077;SDS011;2557;51.390;7.494;2023-10-31T11:50:39;6.90;;;4.93;;
5077;SDS011;2557;51.390;7.494;2023-10-31T11:53:09;4.50;;;4.07;;
5077;SDS011;2557;51.390;7.494;2023-10-31T11:55:47;7.93;;;4.03;;
5077;SDS011;2557;51.390;7.494;2023-10-31T11:58:20;4.43;;;4.13;;
5077;SDS011;2557;51.390;7.494;2023-10-31T12:00:50;7.53;;;4.20;;
5077;SDS011;2557;51.390;7.494;2023-10-31T12:03:17;4.83;;;3.83;;
5077;SDS011;2557;51.390;7.494;2023-10-31T12:05:53;6.63;;;3.57;;
5077;SDS011;2557;51.390;7.494;2023-10-31T12:08:32;11.67;;;4.10;;
5077;SDS011;2557;51.390;7.494;2023-10-31T12:11:08;5.70;;;3.40;;
5077;SDS011;2557;51.390;7.494;2023-10-31T12:13:35;7.53;;;4.00;;
5077;SDS011;2557;51.390;7.494;2023-10-31T12:16:02;5.07;;;3.00;;
5077;SDS011;2557;51.390;7.494;2023-10-31T12:18:28;8.00;;;3.10;;
5077;SDS011;2557;51.390;7.494;2023-10-31T12:20:54;11.70;;;3.90;;
5077;SDS011;2557;51.390;7.494;2023-10-31T12:23:21;6.30;;;3.13;;
5077;SDS011;2557;51.390;7.494;2023-10-31T12:25:47;3.10;;;2.80;;
5077;SDS011;2557;51.390;7.494;2023-10-31T12:28:17;2.83;;;2.30;;
5077;SDS011;2557;51.390;7.494;2023-10-31T12:30:44;5.03;;;3.20;;
5077;SDS011;2557;51.390;7.494;2023-10-31T12:33:11;4.90;;;2.50;;
5077;SDS011;2557;51.390;7.494;2023-10-31T12:35:37;7.63;;;2.47;;
5077;SDS011;2557;51.390;7.494;2023-10-31T12:38:04;4.80;;;2.73;;
5077;SDS011;2557;51.390;7.494;2023-10-31T12:40:30;11.80;;;3.90;;
5077;SDS011;2557;51.390;7.494;2023-10-31T12:42:57;7.37;;;2.90;;
5077;SDS011;2557;51.390;7.494;2023-10-31T12:45:23;3.60;;;2.57;;
5077;SDS011;2557;51.390;7.494;2023-10-31T12:48:00;5.20;;;2.70;;
5077;SDS011;2557;51.390;7.494;2023-10-31T12:50:27;4.00;;;2.50;;
5077;SDS011;2557;51.390;7.494;2023-10-31T12:52:53;6.33;;;2.90;;
5077;SDS011;2557;51.390;7.494;2023-10-31T12:55:24;6.43;;;2.33;;
5077;SDS011;2557;51.390;7.494;2023-10-31T12:57:50;3.73;;;2.30;;
5077;SDS011;2557;51.390;7.494;2023-10-31T13:00:17;9.37;;;3.10;;
5077;SDS011;2557;51.390;7.494;2023-10-31T13:02:49;6.90;;;2.40;;
5077;SDS011;2557;51.390;7.494;2023-10-31T13:05:15;4.87;;;2.60;;
5077;SDS011;2557;51.390;7.494;2023-10-31T13:07:48;4.40;;;3.13;;
5077;SDS011;2557;51.390;7.494;2023-10-31T13:10:15;4.20;;;2.97;;
5077;SDS011;2557;51.390;7.494;2023-10-31T13:12:47;4.90;;;2.93;;
5077;SDS011;2557;51.390;7.494;2023-10-31T13:15:17;5.33;;;2.60;;
5077;SDS011;2557;51.390;7.494;2023-10-31T13:17:47;7.60;;;3.10;;
5077;SDS011;2557;51.390;7.494;2023-10-31T13:20:14;6.60;;;3.00;;
5077;SDS011;2557;51.390;7.494;2023-10-31T13:22:40;2.83;;;2.57;;
5077;SDS011;2557;51.390;7.494;2023-10-31T13:25:08;2.93;;;2.67;;
5077;SDS011;2557;51.390;7.494;2023-10-31T13:27:35;3.97;;;2.80;;
5077;SDS011;2557;51.390;7.494;2023-10-31T13:30:02;9.80;;;3.10;;
5077;SDS011;2557;51.390;7.494;2023-10-31T13:32:28;4.30;;;2.87;;
5077;SDS011;2557;51.390;7.494;2023-10-31T13:34:54;3.20;;;3.00;;
5077;SDS011;2557;51.390;7.494;2023-10-31T13:37:20;4.47;;;2.50;;
5077;SDS011;2557;51.390;7.494;2023-10-31T13:39:47;3.23;;;2.87;;
5077;SDS011;2557;51.390;7.494;2023-10-31T13:42:13;4.87;;;2.43;;
5077;SDS011;2557;51.390;7.494;2023-10-31T13:44:39;10.33;;;3.77;;
5077;SDS011;2557;51.390;7.494;2023-10-31T13:47:05;3.50;;;3.10;;
5077;SDS011;2557;51.390;7.494;2023-10-31T13:49:31;5.50;;;2.53;;
5077;SDS011;2557;51.390;7.494;2023-10-31T13:51:57;2.90;;;2.30;;
5077;SDS011;2557;51.390;7.494;2023-10-31T13:54:24;3.83;;;3.00;;
5077;SDS011;2557;51.390;7.494;2023-10-31T13:56:50;5.00;;;3.40;;
5077;SDS011;2557;51.390;7.494;2023-10-31T13:59:16;2.63;;;2.43;;
5077;SDS011;2557;51.390;7.494;2023-10-31T14:01:43;4.90;;;2.60;;
5077;SDS011;2557;51.390;7.494;2023-10-31T14:04:11;2.93;;;2.67;;
5077;SDS011;2557;51.390;7.494;2023-10-31T14:06:40;3.57;;;3.00;;
5077;SDS011;2557;51.390;7.494;2023-10-31T14:09:07;2.70;;;2.50;;
5077;SDS011;2557;51.390;7.494;2023-10-31T14:11:33;2.37;;;2.27;;
5077;SDS011;2557;51.390;7.494;2023-10-31T14:14:00;2.73;;;2.40;;
5077;SDS011;2557;51.390;7.494;2023-10-31T14:16:31;4.00;;;2.77;;
5077;SDS011;2557;51.390;7.494;2023-10-31T14:18:57;2.80;;;2.47;;
5077;SDS011;2557;51.390;7.494;2023-10-31T14:21:23;3.40;;;2.23;;
5077;SDS011;2557;51.390;7.494;2023-10-31T14:23:50;3.30;;;2.53;;
5077;SDS011;2557;51.390;7.494;2023-10-31T14:26:20;4.07;;;2.23;;
5077;SDS011;2557;51.390;7.494;2023-10-31T14:28:46;5.37;;;2.70;;
5077;SDS011;2557;51.390;7.494;2023-10-31T14:31:13;3.17;;;2.50;;
5077;SDS011;2557;51.390;7.494;2023-10-31T14:33:39;3.03;;;2.43;;
5077;SDS011;2557;51.390;7.494;2023-10-31T14:36:05;10.33;;;2.93;;
5077;SDS011;2557;51.390;7.494;2023-10-31T14:38:32;2.70;;;2.50;;
5077;SDS011;2557;51.390;7.494;2023-10-31T14:40:58;3.53;;;2.33;;
5077;SDS011;2557;51.390;7.494;2023-10-31T14:43:24;8.33;;;2.87;;
5077;SDS011;2557;51.390;7.494;2023-10-31T14:45:50;3.63;;;2.57;;
5077;SDS011;2557;51.390;7.494;2023-10-31T14:48:17;6.40;;;2.63;;
5077;SDS011;2557;51.390;7.494;2023-10-31T14:50:43;3.53;;;2.40;;
5077;SDS011;2557;51.390;7.494;2023-10-31T14:53:09;8.17;;;2.80;;
5077;SDS011;2557;51.390;7.494;2023-10-31T14:55:35;5.70;;;2.90;;
5077;SDS011;2557;51.390;7.494;2023-10-31T14:58:01;5.67;;;2.73;;
5077;SDS011;2557;51.390;7.494;2023-10-31T15:00:27;2.67;;;2.47;;
5077;SDS011;2557;51.390;7.494;2023-10-31T15:02:53;2.90;;;2.30;;
5077;SDS011;2557;51.390;7.494;2023-10-31T15:05:19;7.10;;;2.80;;
5077;SDS011;2557;51.390;7.494;2023-10-31T15:07:45;5.50;;;2.30;;
5077;SDS011;2557;51.390;7.494;2023-10-31T15:10:12;3.90;;;2.60;;
5077;SDS011;2557;51.390;7.494;2023-10-31T15:12:37;5.87;;;2.70;;